createdAt,value
2018-10-09T00:01:40.583Z,11.40
2018-10-09T00:04:08.190Z,12.43
2018-10-09T00:06:35.882Z,12.27
2018-10-09T00:09:04.527Z,12.40
2018-10-09T00:11:32.147Z,13.40
2018-10-09T00:13:59.680Z,13.03
2018-10-09T00:16:27.219Z,13.60
2018-10-09T00:18:54.737Z,12.53
2018-10-09T00:21:22.362Z,12.83
2018-10-09T00:23:50.006Z,12.70
2018-10-09T00:26:17.545Z,12.80
2018-10-09T00:28:45.058Z,13.43
2018-10-09T00:31:12.578Z,12.87
2018-10-09T00:33:40.212Z,13.70
2018-10-09T00:36:07.831Z,14.03
2018-10-09T00:38:35.531Z,14.33
2018-10-09T00:41:03.226Z,13.97
2018-10-09T00:43:30.807Z,14.17
2018-10-09T00:45:58.405Z,14.63
2018-10-09T00:48:25.946Z,14.00
2018-10-09T00:50:53.571Z,14.10
2018-10-09T00:53:21.200Z,14.77
2018-10-09T00:55:48.814Z,14.80
2018-10-09T00:58:16.345Z,14.97
2018-10-09T01:00:43.954Z,14.80
2018-10-09T01:03:11.592Z,14.57
2018-10-09T01:05:39.109Z,15.07
2018-10-09T01:08:07.521Z,15.33
2018-10-09T01:10:35.198Z,15.00
2018-10-09T01:13:02.794Z,13.63
2018-10-09T01:15:30.846Z,13.23
2018-10-09T01:17:58.361Z,13.53
2018-10-09T01:20:31.271Z,14.17
2018-10-09T01:22:59.081Z,14.80
2018-10-09T01:25:26.708Z,13.53
2018-10-09T01:27:54.290Z,12.80
2018-10-09T01:30:21.826Z,12.40
2018-10-09T01:32:49.362Z,12.97
2018-10-09T01:35:16.982Z,13.03
2018-10-09T01:37:44.498Z,13.13
2018-10-09T01:40:12.128Z,13.83
2018-10-09T01:42:39.727Z,14.60
2018-10-09T01:45:07.253Z,12.87
2018-10-09T01:47:34.838Z,13.07
2018-10-09T01:50:02.363Z,13.33
2018-10-09T01:52:29.871Z,13.93
2018-10-09T01:54:57.510Z,13.70
2018-10-09T01:57:25.126Z,14.00
2018-10-09T01:59:52.629Z,14.10
2018-10-09T02:02:20.247Z,13.60
2018-10-09T02:04:47.773Z,13.00
2018-10-09T02:07:15.402Z,13.20
2018-10-09T02:09:43.026Z,14.67
2018-10-09T02:12:10.653Z,13.50
2018-10-09T02:14:38.177Z,12.40
2018-10-09T02:17:05.838Z,13.30
2018-10-09T02:19:33.458Z,13.00
2018-10-09T02:22:01.130Z,13.47
2018-10-09T02:24:28.641Z,11.97
2018-10-09T02:26:56.194Z,13.13
2018-10-09T02:29:23.801Z,13.43
2018-10-09T02:31:51.450Z,12.93
2018-10-09T02:34:19.066Z,12.00
2018-10-09T02:36:46.581Z,12.27
2018-10-09T02:39:14.202Z,12.90
2018-10-09T02:41:41.879Z,13.03
2018-10-09T02:44:09.958Z,13.60
2018-10-09T02:46:37.482Z,12.87
2018-10-09T02:49:05.141Z,12.53
2018-10-09T02:51:32.760Z,13.83
2018-10-09T02:54:00.410Z,12.27
2018-10-09T02:56:27.933Z,13.03
2018-10-09T02:58:55.669Z,13.37
2018-10-09T03:01:23.290Z,13.20
2018-10-09T03:03:50.901Z,13.67
2018-10-09T03:06:18.461Z,13.27
2018-10-09T03:08:46.065Z,12.60
2018-10-09T03:11:13.631Z,13.17
2018-10-09T03:13:41.146Z,14.60
2018-10-09T03:16:08.777Z,13.13
2018-10-09T03:18:36.290Z,12.60
2018-10-09T03:21:03.936Z,14.20
2018-10-09T03:23:31.481Z,13.27
2018-10-09T03:25:59.131Z,13.00
2018-10-09T03:28:26.687Z,13.83
2018-10-09T03:30:54.316Z,13.63
2018-10-09T03:33:22.005Z,13.83
2018-10-09T03:35:49.533Z,15.13
2018-10-09T03:38:17.149Z,14.03
2018-10-09T03:40:44.653Z,14.43
2018-10-09T03:43:12.281Z,14.27
2018-10-09T03:45:39.896Z,13.33
2018-10-09T03:48:07.538Z,14.70
2018-10-09T03:50:35.155Z,14.57
2018-10-09T03:53:02.793Z,13.53
2018-10-09T03:55:30.433Z,14.33
2018-10-09T03:57:58.070Z,14.17
2018-10-09T04:00:25.614Z,13.40
2018-10-09T04:02:53.267Z,13.67
2018-10-09T04:05:20.781Z,13.77
2018-10-09T04:07:48.991Z,14.57
2018-10-09T04:10:16.541Z,14.10
2018-10-09T04:12:44.124Z,13.10
2018-10-09T04:15:11.734Z,13.93
2018-10-09T04:17:39.258Z,13.97
2018-10-09T04:20:06.973Z,14.03
2018-10-09T04:22:34.481Z,14.47
2018-10-09T04:25:02.003Z,14.23
2018-10-09T04:27:29.517Z,13.33
2018-10-09T04:29:57.126Z,14.10
2018-10-09T04:32:24.646Z,14.17
2018-10-09T04:34:52.254Z,14.20
2018-10-09T04:37:19.770Z,14.30
2018-10-09T04:39:47.419Z,21.43
2018-10-09T04:42:14.978Z,20.73
2018-10-09T04:44:42.582Z,22.70
2018-10-09T04:47:10.218Z,20.37
2018-10-09T04:49:37.737Z,19.90
2018-10-09T04:52:05.261Z,18.07
2018-10-09T04:54:32.802Z,17.10
2018-10-09T04:57:00.418Z,17.07
2018-10-09T04:59:27.950Z,16.33
2018-10-09T05:01:55.675Z,16.53
2018-10-09T05:04:23.213Z,16.93
2018-10-09T05:06:50.826Z,17.23
2018-10-09T05:09:18.338Z,17.07
2018-10-09T05:11:45.835Z,15.77
2018-10-09T05:14:13.370Z,15.87
2018-10-09T05:16:40.926Z,17.47
2018-10-09T05:19:08.437Z,17.57
2018-10-09T05:21:35.950Z,16.13
2018-10-09T05:24:03.462Z,17.10
2018-10-09T05:26:30.997Z,17.60
2018-10-09T05:28:58.546Z,16.80
2018-10-09T05:31:26.109Z,18.20
2018-10-09T05:33:53.703Z,15.40
2018-10-09T05:36:21.221Z,15.70
2018-10-09T05:38:48.793Z,17.27
2018-10-09T05:41:16.333Z,17.73
2018-10-09T05:43:43.876Z,15.97
2018-10-09T05:46:11.408Z,15.60
2018-10-09T05:48:39.050Z,17.90
2018-10-09T05:51:06.621Z,17.13
2018-10-09T05:53:34.202Z,16.37
2018-10-09T05:56:01.721Z,16.47
2018-10-09T05:58:29.346Z,15.57
2018-10-09T06:00:56.945Z,15.97
2018-10-09T06:03:24.469Z,17.03
2018-10-09T06:05:52.002Z,16.83
2018-10-09T06:08:19.533Z,18.27
2018-10-09T06:10:47.187Z,17.50
2018-10-09T06:13:14.711Z,16.73
2018-10-09T06:15:42.316Z,16.93
2018-10-09T06:18:09.899Z,16.57
2018-10-09T06:20:37.545Z,16.53
2018-10-09T06:23:05.385Z,17.50
2018-10-09T06:25:32.914Z,17.63
2018-10-09T06:28:00.527Z,19.03
2018-10-09T06:30:28.043Z,17.20
2018-10-09T06:32:55.797Z,18.83
2018-10-09T06:35:23.323Z,17.53
2018-10-09T06:37:51.284Z,19.20
2018-10-09T06:40:18.825Z,17.30
2018-10-09T06:42:46.453Z,17.27
2018-10-09T06:45:13.945Z,16.63
2018-10-09T06:47:41.574Z,16.17
2018-10-09T06:50:09.030Z,17.40
2018-10-09T06:52:36.557Z,18.70
2018-10-09T06:55:04.137Z,18.07
2018-10-09T06:57:31.638Z,18.43
2018-10-09T06:59:59.191Z,18.20
2018-10-09T07:02:26.871Z,18.47
2018-10-09T07:04:54.402Z,17.83
2018-10-09T07:07:21.938Z,18.97
2018-10-09T07:09:49.471Z,18.53
2018-10-09T07:12:17.001Z,18.37
2018-10-09T07:14:44.547Z,18.73
2018-10-09T07:17:12.383Z,17.70
2018-10-09T07:19:39.927Z,18.53
2018-10-09T07:22:07.598Z,18.90
2018-10-09T07:24:35.278Z,19.27
2018-10-09T07:27:02.825Z,17.90
2018-10-09T07:29:30.358Z,19.80
2018-10-09T07:31:57.890Z,18.90
2018-10-09T07:34:25.546Z,18.77
2018-10-09T07:36:53.082Z,18.47
2018-10-09T07:39:20.739Z,18.77
2018-10-09T07:41:48.265Z,18.83
2018-10-09T07:44:15.823Z,18.73
2018-10-09T07:46:43.438Z,18.37
2018-10-09T07:49:10.967Z,18.97
2018-10-09T07:51:38.494Z,18.80
2018-10-09T07:54:06.021Z,20.00
2018-10-09T07:56:33.544Z,19.43
2018-10-09T07:59:01.185Z,20.20
2018-10-09T08:01:28.897Z,20.53
2018-10-09T08:03:56.606Z,20.03
2018-10-09T08:06:24.130Z,20.13
2018-10-09T08:08:51.750Z,18.53
2018-10-09T08:11:19.574Z,20.83
2018-10-09T08:13:47.137Z,21.17
2018-10-09T08:16:14.914Z,20.93
2018-10-09T08:18:42.422Z,20.57
2018-10-09T08:21:09.947Z,21.63
2018-10-09T08:23:37.504Z,22.07
2018-10-09T08:26:05.146Z,21.57
2018-10-09T08:28:32.818Z,22.10
2018-10-09T08:31:00.468Z,22.47
2018-10-09T08:33:28.118Z,22.03
2018-10-09T08:35:55.722Z,21.67
2018-10-09T08:38:23.346Z,20.20
2018-10-09T08:40:50.902Z,22.47
2018-10-09T08:43:18.635Z,22.70
2018-10-09T08:45:46.163Z,21.00
2018-10-09T08:48:13.716Z,21.93
2018-10-09T08:50:41.283Z,20.60
2018-10-09T08:53:09.099Z,22.43
2018-10-09T08:55:36.746Z,21.43
2018-10-09T08:58:04.322Z,23.33
2018-10-09T09:00:31.892Z,23.67
2018-10-09T09:02:59.523Z,20.30
2018-10-09T09:05:27.098Z,23.17
2018-10-09T09:07:54.614Z,21.37
2018-10-09T09:10:22.163Z,20.00
2018-10-09T09:12:49.713Z,21.03
2018-10-09T09:15:17.268Z,21.83
2018-10-09T09:17:44.784Z,21.67
2018-10-09T09:20:12.457Z,21.23
2018-10-09T09:22:40.147Z,20.20
2018-10-09T09:25:07.701Z,20.10
2018-10-09T09:27:35.314Z,19.90
2018-10-09T09:30:03.002Z,19.87
2018-10-09T09:32:30.623Z,22.20
2018-10-09T09:34:58.170Z,22.17
2018-10-09T09:37:25.695Z,20.47
2018-10-09T09:39:53.245Z,21.03
2018-10-09T09:42:20.885Z,19.93
2018-10-09T09:44:48.532Z,20.33
2018-10-09T09:47:16.190Z,19.93
2018-10-09T09:49:43.714Z,19.97
2018-10-09T09:52:12.220Z,18.93
2018-10-09T09:54:39.741Z,20.97
2018-10-09T09:57:07.281Z,19.40
2018-10-09T09:59:34.850Z,20.43
2018-10-09T10:02:02.490Z,18.53
2018-10-09T10:04:30.015Z,20.27
2018-10-09T10:06:57.630Z,18.03
2018-10-09T10:09:25.222Z,17.93
2018-10-09T10:11:52.808Z,15.70
2018-10-09T10:14:20.367Z,15.50
2018-10-09T10:16:48.003Z,14.77
2018-10-09T10:19:15.546Z,17.87
2018-10-09T10:21:43.176Z,16.33
2018-10-09T10:24:10.890Z,15.03
2018-10-09T10:26:38.519Z,14.27
2018-10-09T10:29:06.356Z,14.57
2018-10-09T10:31:33.837Z,14.73
2018-10-09T10:34:01.521Z,14.17
2018-10-09T10:36:29.052Z,11.93
2018-10-09T10:38:56.615Z,14.47
2018-10-09T10:41:24.174Z,14.10
2018-10-09T10:43:51.692Z,12.63
2018-10-09T10:46:19.250Z,11.93
2018-10-09T10:48:57.706Z,11.00
2018-10-09T10:51:25.474Z,10.63
2018-10-09T10:53:52.991Z,10.27
2018-10-09T10:56:20.680Z,9.93
2018-10-09T10:58:48.398Z,10.53
2018-10-09T11:01:15.939Z,11.77
2018-10-09T11:03:43.482Z,10.53
2018-10-09T11:06:11.001Z,11.70
2018-10-09T11:08:38.570Z,12.87
2018-10-09T11:11:06.238Z,12.77
2018-10-09T11:13:33.776Z,12.43
2018-10-09T11:16:01.303Z,11.43
2018-10-09T11:18:28.818Z,12.53
2018-10-09T11:20:56.348Z,12.07
2018-10-09T11:23:23.994Z,12.07
2018-10-09T11:25:51.538Z,10.90
2018-10-09T11:28:19.053Z,11.67
2018-10-09T11:30:46.578Z,11.73
2018-10-09T11:33:14.406Z,11.97
2018-10-09T11:35:42.054Z,13.97
2018-10-09T11:38:10.090Z,12.17
2018-10-09T11:40:37.738Z,11.83
2018-10-09T11:43:05.791Z,12.53
2018-10-09T11:45:33.322Z,12.27
2018-10-09T11:48:00.859Z,11.70
2018-10-09T11:50:28.394Z,12.80
2018-10-09T11:52:55.938Z,12.73
2018-10-09T11:55:23.574Z,11.40
2018-10-09T11:57:51.084Z,12.07
2018-10-09T12:00:18.630Z,12.07
2018-10-09T12:02:46.302Z,11.07
2018-10-09T12:05:13.970Z,11.30
2018-10-09T12:07:41.623Z,11.40
2018-10-09T12:10:09.166Z,11.63
2018-10-09T12:12:36.718Z,10.30
2018-10-09T12:15:04.305Z,10.93
2018-10-09T12:17:31.841Z,10.57
2018-10-09T12:19:59.480Z,11.50
2018-10-09T12:22:27.013Z,10.20
2018-10-09T12:24:54.521Z,12.13
2018-10-09T12:27:22.163Z,11.07
2018-10-09T12:29:49.709Z,10.23
2018-10-09T12:32:17.262Z,10.50
2018-10-09T12:34:44.790Z,10.53
2018-10-09T12:37:12.381Z,10.53
2018-10-09T12:39:39.928Z,11.67
2018-10-09T12:42:07.598Z,12.30
2018-10-09T12:44:35.114Z,11.90
2018-10-09T12:47:02.653Z,11.20
2018-10-09T12:49:30.260Z,11.37
2018-10-09T12:51:58.046Z,11.07
2018-10-09T12:54:25.570Z,11.80
2018-10-09T12:56:53.137Z,10.53
2018-10-09T12:59:20.631Z,11.47
2018-10-09T13:01:48.145Z,11.80
2018-10-09T13:04:15.701Z,11.67
2018-10-09T13:06:43.247Z,11.17
2018-10-09T13:09:12.302Z,11.60
2018-10-09T13:11:39.821Z,10.47
2018-10-09T13:14:07.321Z,10.23
2018-10-09T13:16:34.833Z,9.93
2018-10-09T13:19:02.562Z,10.20
2018-10-09T13:21:30.408Z,10.67
2018-10-09T13:23:57.671Z,10.53
2018-10-09T13:26:25.279Z,9.63
2018-10-09T13:28:59.700Z,10.10
2018-10-09T13:31:27.543Z,9.30
2018-10-09T13:33:55.199Z,9.63
2018-10-09T13:36:22.833Z,8.93
2018-10-09T13:38:50.350Z,8.30
2018-10-09T13:41:17.862Z,8.87
2018-10-09T13:43:45.420Z,8.70
2018-10-09T13:46:13.031Z,8.40
2018-10-09T13:48:40.645Z,8.23
2018-10-09T13:51:08.174Z,9.07
2018-10-09T13:53:35.702Z,8.60
2018-10-09T13:56:03.400Z,8.40
2018-10-09T13:58:31.037Z,7.97
2018-10-09T14:00:58.655Z,8.83
2018-10-09T14:03:26.266Z,7.37
2018-10-09T14:05:53.850Z,8.17
2018-10-09T14:08:21.458Z,7.97
2018-10-09T14:10:48.978Z,8.50
2018-10-09T14:13:16.578Z,8.63
2018-10-09T14:15:44.286Z,7.97
2018-10-09T14:18:11.801Z,8.63
2018-10-09T14:20:39.463Z,8.63
2018-10-09T14:23:07.005Z,9.07
2018-10-09T14:25:34.910Z,8.43
2018-10-09T14:28:02.544Z,8.60
2018-10-09T14:30:30.529Z,8.83
2018-10-09T14:32:58.310Z,8.30
2018-10-09T14:35:25.970Z,8.63
2018-10-09T14:37:53.754Z,7.87
2018-10-09T14:40:21.261Z,8.03
2018-10-09T14:42:48.758Z,7.80
2018-10-09T14:45:16.281Z,8.23
2018-10-09T14:47:44.298Z,8.43
2018-10-09T14:50:11.913Z,8.40
2018-10-09T14:52:39.506Z,8.27
2018-10-09T14:55:07.050Z,8.37
2018-10-09T14:57:34.764Z,7.77
2018-10-09T15:00:02.270Z,8.60
2018-10-09T15:02:29.877Z,8.60
2018-10-09T15:04:57.422Z,8.00
2018-10-09T15:07:25.435Z,7.90
2018-10-09T15:09:52.958Z,7.73
2018-10-09T15:12:20.444Z,8.03
2018-10-09T15:14:48.066Z,8.30
2018-10-09T15:17:15.595Z,8.40
2018-10-09T15:19:43.227Z,7.60
2018-10-09T15:22:10.887Z,7.17
2018-10-09T15:24:38.506Z,7.43
2018-10-09T15:27:06.098Z,8.13
2018-10-09T15:29:33.742Z,7.90
2018-10-09T15:32:01.286Z,7.83
2018-10-09T15:34:28.798Z,7.03
2018-10-09T15:36:56.581Z,7.87
2018-10-09T15:39:24.108Z,7.47
2018-10-09T15:41:51.791Z,6.93
2018-10-09T15:44:19.297Z,7.30
2018-10-09T15:46:46.831Z,7.80
2018-10-09T15:49:14.331Z,6.83
2018-10-09T15:51:41.867Z,7.17
2018-10-09T15:54:09.509Z,6.93
2018-10-09T15:56:37.290Z,7.93
2018-10-09T15:59:04.950Z,7.30
2018-10-09T16:01:32.563Z,7.40
2018-10-09T16:04:00.321Z,6.80
2018-10-09T16:06:27.938Z,6.90
2018-10-09T16:08:55.659Z,7.17
2018-10-09T16:11:23.414Z,6.97
2018-10-09T16:13:50.921Z,6.77
2018-10-09T16:16:18.956Z,6.80
2018-10-09T16:18:46.565Z,6.73
2018-10-09T16:21:14.096Z,6.57
2018-10-09T16:23:41.626Z,7.10
2018-10-09T16:26:09.258Z,6.50
2018-10-09T16:28:36.764Z,6.87
2018-10-09T16:31:04.362Z,6.47
2018-10-09T16:33:31.883Z,6.57
2018-10-09T16:35:59.424Z,6.97
2018-10-09T16:38:26.922Z,6.20
2018-10-09T16:40:54.480Z,6.97
2018-10-09T16:43:22.054Z,6.73
2018-10-09T16:45:49.552Z,6.23
2018-10-09T16:48:17.103Z,7.13
2018-10-09T16:50:44.620Z,7.53
2018-10-09T16:53:12.192Z,7.53
2018-10-09T16:55:39.697Z,7.30
2018-10-09T16:58:07.318Z,7.07
2018-10-09T17:00:35.002Z,8.00
2018-10-09T17:03:02.513Z,7.20
2018-10-09T17:05:36.802Z,8.37
2018-10-09T17:08:04.331Z,7.90
2018-10-09T17:10:31.982Z,8.20
2018-10-09T17:12:59.610Z,8.07
2018-10-09T17:15:27.255Z,8.90
2018-10-09T17:17:54.630Z,8.80
2018-10-09T17:20:22.129Z,9.00
2018-10-09T17:22:49.682Z,8.37
2018-10-09T17:25:17.199Z,9.00
2018-10-09T17:27:44.823Z,9.43
2018-10-09T17:30:12.333Z,9.17
2018-10-09T17:32:39.827Z,8.67
2018-10-09T17:35:07.421Z,9.30
2018-10-09T17:37:34.927Z,11.00
2018-10-09T17:40:02.705Z,9.00
2018-10-09T17:42:30.210Z,8.90
2018-10-09T17:44:57.820Z,9.73
2018-10-09T17:47:25.330Z,9.37
2018-10-09T17:49:52.948Z,8.57
2018-10-09T17:52:20.918Z,9.50
2018-10-09T17:54:48.511Z,10.27
2018-10-09T17:57:16.098Z,10.80
2018-10-09T17:59:43.638Z,10.60
2018-10-09T18:02:11.250Z,11.23
2018-10-09T18:04:38.761Z,11.93
2018-10-09T18:07:06.326Z,12.40
2018-10-09T18:09:33.834Z,11.97
2018-10-09T18:12:01.360Z,12.40
2018-10-09T18:14:28.873Z,10.97
2018-10-09T18:16:56.394Z,10.93
2018-10-09T18:19:23.914Z,12.20
2018-10-09T18:21:51.437Z,12.50
2018-10-09T18:24:19.054Z,13.13
2018-10-09T18:26:46.585Z,12.20
2018-10-09T18:29:14.098Z,12.87
2018-10-09T18:31:41.724Z,12.13
2018-10-09T18:34:09.215Z,11.70
2018-10-09T18:36:37.027Z,12.53
2018-10-09T18:39:07.458Z,12.33
2018-10-09T18:41:35.212Z,13.00
2018-10-09T18:44:02.972Z,13.27
2018-10-09T18:46:30.534Z,13.10
2018-10-09T18:48:58.254Z,12.50
2018-10-09T18:51:25.892Z,14.63
2018-10-09T18:53:53.535Z,13.83
2018-10-09T18:56:21.057Z,13.87
2018-10-09T18:58:48.686Z,14.77
2018-10-09T19:01:16.295Z,13.77
2018-10-09T19:03:43.894Z,14.47
2018-10-09T19:06:11.516Z,13.83
2018-10-09T19:08:39.133Z,13.43
2018-10-09T19:11:06.666Z,14.13
2018-10-09T19:13:34.214Z,15.53
2018-10-09T19:16:01.807Z,15.03
2018-10-09T19:18:29.330Z,15.33
2018-10-09T19:20:56.984Z,13.83
2018-10-09T19:23:24.607Z,13.27
2018-10-09T19:25:52.458Z,13.20
2018-10-09T19:28:19.970Z,14.63
2018-10-09T19:30:47.790Z,13.37
2018-10-09T19:33:15.479Z,13.23
2018-10-09T19:35:42.986Z,14.23
2018-10-09T19:38:10.538Z,14.07
2018-10-09T19:40:38.147Z,13.53
2018-10-09T19:43:05.686Z,13.27
2018-10-09T19:45:33.299Z,13.27
2018-10-09T19:48:00.903Z,13.93
2018-10-09T19:50:28.494Z,14.50
2018-10-09T19:52:56.206Z,14.73
2018-10-09T19:55:23.849Z,14.10
2018-10-09T19:57:51.535Z,15.07
2018-10-09T20:00:19.097Z,14.80
2018-10-09T20:02:46.616Z,15.63
2018-10-09T20:05:14.222Z,15.07
2018-10-09T20:07:41.752Z,15.30
2018-10-09T20:10:09.290Z,14.03
2018-10-09T20:12:37.063Z,13.77
2018-10-09T20:15:04.600Z,15.07
2018-10-09T20:17:32.118Z,15.03
2018-10-09T20:19:59.811Z,14.23
2018-10-09T20:22:27.405Z,13.90
2018-10-09T20:24:54.933Z,15.43
2018-10-09T20:27:22.540Z,16.17
2018-10-09T20:29:50.098Z,15.43
2018-10-09T20:32:17.753Z,14.83
2018-10-09T20:34:45.523Z,16.13
2018-10-09T20:37:13.146Z,15.97
2018-10-09T20:39:40.683Z,14.63
2018-10-09T20:42:08.270Z,15.87
2018-10-09T20:44:35.871Z,15.07
2018-10-09T20:47:03.422Z,16.80
2018-10-09T20:49:30.922Z,16.73
2018-10-09T20:51:58.426Z,15.77
2018-10-09T20:54:25.953Z,15.83
2018-10-09T20:56:53.550Z,16.83
2018-10-09T20:59:21.070Z,18.83
2018-10-09T21:01:48.668Z,16.07
2018-10-09T21:04:16.202Z,16.90
2018-10-09T21:06:43.824Z,15.60
2018-10-09T21:09:11.388Z,16.13
2018-10-09T21:11:39.018Z,16.67
2018-10-09T21:14:06.731Z,15.40
2018-10-09T21:16:34.375Z,14.57
2018-10-09T21:19:02.013Z,15.87
2018-10-09T21:21:29.562Z,14.47
2018-10-09T21:23:57.186Z,14.27
2018-10-09T21:26:24.706Z,15.27
2018-10-09T21:28:52.238Z,14.40
2018-10-09T21:31:19.768Z,14.97
2018-10-09T21:33:47.292Z,15.30
2018-10-09T21:36:14.927Z,14.10
2018-10-09T21:38:42.556Z,14.87
2018-10-09T21:41:10.086Z,14.00
2018-10-09T21:43:37.605Z,13.47
2018-10-09T21:46:05.131Z,15.53
2018-10-09T21:48:32.656Z,13.60
2018-10-09T21:51:00.288Z,13.83
2018-10-09T21:53:27.894Z,14.93
2018-10-09T21:55:55.409Z,14.67
2018-10-09T21:58:22.930Z,14.13
2018-10-09T22:00:56.103Z,15.57
2018-10-09T22:03:23.750Z,13.20
2018-10-09T22:05:51.345Z,13.90
2018-10-09T22:08:18.887Z,13.33
2018-10-09T22:10:46.705Z,14.17
2018-10-09T22:13:14.316Z,13.87
2018-10-09T22:15:41.979Z,15.43
2018-10-09T22:18:09.497Z,15.07
2018-10-09T22:20:37.154Z,14.33
2018-10-09T22:23:04.781Z,13.97
2018-10-09T22:25:38.866Z,15.17
2018-10-09T22:28:06.378Z,15.00
2018-10-09T22:30:33.998Z,15.57
2018-10-09T22:33:01.703Z,14.17
2018-10-09T22:35:29.375Z,15.23
2018-10-09T22:37:56.895Z,15.13
2018-10-09T22:40:24.487Z,15.50
2018-10-09T22:42:52.099Z,15.73
2018-10-09T22:45:19.605Z,14.87
2018-10-09T22:47:47.196Z,15.57
2018-10-09T22:50:14.721Z,16.83
2018-10-09T22:52:42.823Z,14.57
2018-10-09T22:55:10.447Z,14.37
2018-10-09T22:57:38.069Z,15.97
2018-10-09T23:00:05.654Z,15.07
2018-10-09T23:02:33.250Z,15.53
2018-10-09T23:05:00.870Z,14.90
2018-10-09T23:07:28.470Z,15.27
2018-10-09T23:09:55.974Z,15.47
2018-10-09T23:12:23.554Z,14.43
2018-10-09T23:14:51.238Z,15.43
2018-10-09T23:17:18.750Z,15.33
2018-10-09T23:19:46.266Z,14.33
2018-10-09T23:22:13.874Z,14.87
2018-10-09T23:24:41.482Z,16.33
2018-10-09T23:27:09.006Z,16.93
2018-10-09T23:29:36.650Z,16.00
2018-10-09T23:32:04.145Z,15.20
2018-10-09T23:34:31.745Z,14.07
2018-10-09T23:36:59.262Z,15.70
2018-10-09T23:39:26.854Z,15.80
2018-10-09T23:41:54.446Z,15.93
2018-10-09T23:44:21.938Z,14.00
2018-10-09T23:46:49.429Z,15.27
2018-10-09T23:49:17.022Z,14.63
2018-10-09T23:51:44.647Z,15.27
2018-10-09T23:54:12.181Z,15.83
2018-10-09T23:56:39.806Z,14.80
2018-10-09T23:59:07.459Z,16.37
